Time;durP1;ratioP1;P1;durP2;ratioP2;P2;SDS_P1;SDS_P2;PMS_P1;PMS_P2;Temp;Humidity;BMP_temperature;BMP_pressure;BME280_temperature;BME280_humidity;BME280_pressure;Samples;Min_cycle;Max_cycle;Signal;HPM_P1;HPM_P2
2022/07/18 00:00:37;;;;;;;8.05;2.50;;;;;;;14.76;100.00;100586.22;5017492;28;20042;-72
2022/07/18 00:03:09;;;;;;;6.22;2.38;;;;;;;14.80;100.00;100583.31;5017073;28;20054;-76
2022/07/18 00:05:37;;;;;;;6.22;2.50;;;;;;;14.82;100.00;100578.66;5017172;28;20453;-73
2022/07/18 00:08:06;;;;;;;6.82;2.83;;;;;;;14.81;100.00;100582.34;5017267;28;20049;-72
2022/07/18 00:10:33;;;;;;;4.95;2.35;;;;;;;14.79;100.00;100579.75;5016783;28;20046;-77
2022/07/18 00:13:01;;;;;;;7.22;2.53;;;;;;;14.75;100.00;100589.06;5033517;28;20045;-72
2022/07/18 00:15:29;;;;;;;5.97;2.38;;;;;;;14.76;100.00;100580.78;5036868;28;20049;-72
2022/07/18 00:17:56;;;;;;;5.13;2.28;;;;;;;14.75;100.00;100576.31;5036887;28;20045;-73
2022/07/18 00:20:24;;;;;;;5.72;2.40;;;;;;;14.71;100.00;100580.22;5036798;28;20041;-79
2022/07/18 00:22:51;;;;;;;5.15;2.50;;;;;;;14.71;100.00;100573.91;5036508;28;20045;-73
2022/07/18 00:25:20;;;;;;;6.00;2.15;;;;;;;14.74;100.00;100571.84;5036354;28;20445;-75
2022/07/18 00:27:48;;;;;;;4.70;2.03;;;;;;;14.75;100.00;100572.75;5035046;28;20045;-73
2022/07/18 00:30:16;;;;;;;4.07;2.20;;;;;;;14.70;100.00;100561.25;5036255;28;20049;-74
2022/07/18 00:32:43;;;;;;;4.40;2.25;;;;;;;14.66;100.00;100563.28;5036677;28;20057;-74
2022/07/18 00:35:11;;;;;;;5.05;2.20;;;;;;;14.63;100.00;100564.34;5036482;28;20156;-73
2022/07/18 00:37:38;;;;;;;6.38;2.38;;;;;;;14.64;100.00;100566.06;5036352;28;20041;-76
2022/07/18 00:40:07;;;;;;;6.25;2.20;;;;;;;14.63;100.00;100561.59;5036141;28;20045;-73
2022/07/18 00:42:36;;;;;;;3.90;2.10;;;;;;;14.57;100.00;100561.13;5036350;28;20053;-72
2022/07/18 00:45:05;;;;;;;4.05;2.22;;;;;;;14.47;100.00;100564.41;5036181;28;20053;-75
2022/07/18 00:47:32;;;;;;;4.88;2.33;;;;;;;14.53;100.00;100560.44;5032808;28;20060;-82
2022/07/18 00:50:02;;;;;;;9.98;2.30;;;;;;;14.48;100.00;100562.56;5034724;28;20482;-72
2022/07/18 00:52:30;;;;;;;4.10;2.22;;;;;;;14.46;100.00;100562.66;5034044;28;20041;-79
2022/07/18 00:54:57;;;;;;;7.25;2.35;;;;;;;14.45;100.00;100555.47;5034551;28;20041;-72
2022/07/18 00:57:25;;;;;;;6.03;2.35;;;;;;;14.41;100.00;100558.47;5034764;28;20049;-74
2022/07/18 01:02:40;;;;;;;6.70;2.83;;;;;;;14.52;100.00;100555.13;5034570;28;20053;-83
2022/07/18 01:05:08;;;;;;;6.15;2.30;;;;;;;14.49;100.00;100559.78;5034500;28;20096;-78
2022/07/18 01:07:37;;;;;;;5.22;2.38;;;;;;;14.53;100.00;100557.72;5033898;28;20045;-76
2022/07/18 01:10:05;;;;;;;4.07;2.20;;;;;;;14.53;100.00;100546.84;5034394;28;20498;-72
2022/07/18 01:12:33;;;;;;;6.22;2.30;;;;;;;14.52;100.00;100544.25;5034542;28;20053;-73
2022/07/18 01:15:02;;;;;;;7.82;2.50;;;;;;;14.47;100.00;100542.66;5034490;28;20490;-73
2022/07/18 01:17:30;;;;;;;5.72;2.50;;;;;;;14.43;100.00;100546.53;5034506;28;20053;-80
2022/07/18 01:19:57;;;;;;;7.72;2.60;;;;;;;14.40;100.00;100549.44;5033532;28;20077;-72
2022/07/18 01:22:26;;;;;;;5.07;2.33;;;;;;;14.42;100.00;100542.06;5033543;28;20057;-72
2022/07/18 01:24:54;;;;;;;6.57;2.45;;;;;;;14.42;100.00;100539.34;5034408;28;20049;-72
2022/07/18 01:27:22;;;;;;;5.72;2.65;;;;;;;14.47;100.00;100545.38;5034382;28;20045;-74
2022/07/18 01:29:51;;;;;;;8.05;2.63;;;;;;;14.49;100.00;100531.69;5034448;28;20045;-73
2022/07/18 01:32:19;;;;;;;7.25;2.65;;;;;;;14.44;100.00;100537.41;5034234;28;20045;-74
2022/07/18 01:34:48;;;;;;;6.32;2.55;;;;;;;14.42;100.00;100539.34;5034384;28;20052;-72
2022/07/18 01:37:16;;;;;;;6.15;2.83;;;;;;;14.38;100.00;100543.22;5033834;28;20052;-81
2022/07/18 01:39:47;;;;;;;8.75;2.63;;;;;;;14.46;100.00;100538.19;5034221;28;20407;-73
2022/07/18 01:42:14;;;;;;;8.52;2.45;;;;;;;14.44;100.00;100548.28;5035486;28;20115;-78
2022/07/18 01:44:42;;;;;;;6.30;2.30;;;;;;;14.41;99.68;100537.59;5034189;28;20041;-72
2022/07/18 01:47:11;;;;;;;5.68;2.40;;;;;;;14.49;99.60;100540.75;4978700;28;1596364;-81
2022/07/18 01:49:39;;;;;;;6.53;2.47;;;;;;;14.52;98.88;100533.38;5035169;28;20041;-73
2022/07/18 01:52:07;;;;;;;6.35;2.45;;;;;;;14.47;99.32;100539.94;5034610;28;20057;-79
2022/07/18 01:54:36;;;;;;;7.47;2.50;;;;;;;14.55;100.00;100538.63;5034949;28;20122;-78
2022/07/18 01:57:07;;;;;;;9.75;2.42;;;;;;;14.54;100.00;100542.31;5035039;28;20049;-72
2022/07/18 01:59:35;;;;;;;6.22;2.53;;;;;;;14.48;99.92;100538.09;5036437;28;20099;-72
2022/07/18 02:02:03;;;;;;;8.07;2.58;;;;;;;14.53;99.14;100535.13;5034924;28;20442;-74
2022/07/18 02:07:16;;;;;;;8.00;2.85;;;;;;;14.47;98.26;100539.94;5035421;28;20092;-72
2022/07/18 02:09:43;;;;;;;7.57;2.78;;;;;;;14.47;99.39;100537.22;5034882;28;20502;-72
2022/07/18 02:12:12;;;;;;;7.00;2.80;;;;;;;14.44;99.17;100536.56;5034792;28;20049;-73
2022/07/18 02:14:40;;;;;;;7.97;2.70;;;;;;;14.50;98.58;100544.31;5034049;28;20096;-73
2022/07/18 02:17:07;;;;;;;8.18;2.78;;;;;;;14.47;98.25;100539.06;5034483;28;20048;-72
2022/07/18 02:19:35;;;;;;;8.45;3.10;;;;;;;14.46;98.61;100549.06;5033598;28;20103;-72
2022/07/18 02:22:02;;;;;;;5.38;2.50;;;;;;;14.46;98.02;100546.34;5034438;28;20406;-74
2022/07/18 02:24:30;;;;;;;6.43;2.90;;;;;;;14.50;97.79;100549.75;5034467;28;20095;-72
2022/07/18 02:26:57;;;;;;;7.63;3.00;;;;;;;14.45;97.94;100544.59;5034451;28;20041;-72
2022/07/18 02:29:26;;;;;;;7.90;2.70;;;;;;;14.42;98.21;100539.34;5034446;28;20050;-73
2022/07/18 02:31:54;;;;;;;6.68;2.90;;;;;;;14.41;98.27;100544.91;5034249;28;20049;-72
2022/07/18 02:34:21;;;;;;;7.28;3.05;;;;;;;14.41;98.52;100537.59;5033730;28;20045;-72
2022/07/18 02:36:50;;;;;;;8.60;2.90;;;;;;;14.39;99.28;100544.13;5034133;28;20049;-74
2022/07/18 02:39:19;;;;;;;6.55;2.85;;;;;;;14.38;99.80;100543.22;5033980;28;20048;-71
2022/07/18 02:41:46;;;;;;;9.30;3.30;;;;;;;14.35;99.95;100548.84;5034059;28;20445;-73
2022/07/18 02:44:14;;;;;;;10.57;3.05;;;;;;;14.34;99.26;100547.09;5034011;28;20560;-72
2022/07/18 02:46:43;;;;;;;8.60;3.05;;;;;;;14.39;99.58;100544.97;5033796;28;20049;-72
2022/07/18 02:49:26;;;;;;;7.60;3.00;;;;;;;14.34;100.00;100547.09;5015077;28;20101;-74
2022/07/18 02:51:55;;;;;;;7.93;3.10;;;;;;;14.38;99.20;100550.53;5014611;28;20483;-72
2022/07/18 02:54:23;;;;;;;6.35;3.25;;;;;;;14.31;99.87;100550.00;5014188;28;20407;-72
2022/07/18 02:56:50;;;;;;;7.53;3.17;;;;;;;14.26;99.16;100560.28;5014176;28;20092;-73
2022/07/18 02:59:18;;;;;;;7.47;3.28;;;;;;;14.29;99.38;100550.13;5014187;28;20453;-75
2022/07/18 03:01:48;;;;;;;7.60;3.15;;;;;;;14.18;99.68;100556.19;5014071;28;20085;-72
2022/07/18 03:04:16;;;;;;;13.23;3.33;;;;;;;14.20;99.85;100561.53;5013807;28;20391;-72
2022/07/18 03:06:44;;;;;;;10.43;3.33;;;;;;;14.16;99.82;100554.53;5013891;28;20054;-73
2022/07/18 03:09:11;;;;;;;8.18;3.25;;;;;;;14.15;99.65;100550.94;5013972;28;20498;-75
2022/07/18 03:11:39;;;;;;;8.65;3.38;;;;;;;14.16;100.00;100549.97;5013752;28;20045;-73
2022/07/18 03:14:06;;;;;;;9.50;3.50;;;;;;;14.12;100.00;100553.84;5013745;28;20049;-73
2022/07/18 03:16:34;;;;;;;9.55;3.22;;;;;;;14.18;100.00;100564.34;5013960;28;20395;-72
2022/07/18 03:19:03;;;;;;;10.88;3.45;;;;;;;14.12;100.00;100553.84;5013454;28;20045;-72
2022/07/18 03:21:31;;;;;;;7.10;3.10;;;;;;;14.15;100.00;100553.66;5013767;28;20152;-72
2022/07/18 03:23:58;;;;;;;12.48;3.35;;;;;;;14.15;100.00;100558.22;5013531;28;20046;-72
2022/07/18 03:26:26;;;;;;;7.35;3.22;;;;;;;14.14;100.00;100551.91;5013835;28;20483;-73
2022/07/18 03:28:53;;;;;;;7.55;3.22;;;;;;;14.12;100.00;100548.41;5013576;28;20048;-72
2022/07/18 03:31:21;;;;;;;8.23;3.45;;;;;;;14.22;100.00;100547.84;5013448;28;20050;-72
2022/07/18 03:33:48;;;;;;;11.48;3.60;;;;;;;14.24;100.00;100556.78;5013268;28;20445;-72
2022/07/18 03:36:18;;;;;;;7.40;3.10;;;;;;;14.17;100.00;100550.84;5013470;28;20073;-72
2022/07/18 03:38:45;;;;;;;7.50;3.40;;;;;;;14.13;100.00;100547.44;5013415;28;20046;-72
2022/07/18 03:41:13;;;;;;;8.50;3.50;;;;;;;14.22;100.00;100556.88;5013691;28;20128;-72
2022/07/18 03:43:41;;;;;;;8.27;3.50;;;;;;;14.14;100.00;100557.34;5013484;28;20057;-73
2022/07/18 03:46:08;;;;;;;6.85;3.00;;;;;;;14.27;100.00;100553.88;5013527;28;20053;-72
2022/07/18 03:48:37;;;;;;;7.05;3.22;;;;;;;14.27;100.00;100559.31;5012706;28;20053;-73
2022/07/18 03:51:04;;;;;;;10.02;3.70;;;;;;;14.41;99.77;100567.50;5013254;28;20454;-74
2022/07/18 03:53:34;;;;;;;9.02;3.35;;;;;;;14.36;99.94;100566.91;5013437;28;20495;-73
2022/07/18 03:56:01;;;;;;;9.65;3.13;;;;;;;14.45;99.62;100576.34;5013392;28;20049;-73
2022/07/18 03:58:29;;;;;;;8.80;3.28;;;;;;;14.52;98.81;100574.16;5013397;28;20052;-71
2022/07/18 04:00:56;;;;;;;9.48;3.40;;;;;;;14.47;98.69;100571.69;5012893;28;20519;-72
2022/07/18 04:03:24;;;;;;;10.60;3.25;;;;;;;14.42;99.14;100571.09;5013300;28;20045;-72
2022/07/18 04:05:51;;;;;;;8.25;3.22;;;;;;;14.35;99.25;100578.75;5013085;28;20100;-74
2022/07/18 04:08:19;;;;;;;7.20;3.50;;;;;;;14.37;98.90;100574.09;5013308;28;20042;-77
2022/07/18 04:10:48;;;;;;;6.63;3.53;;;;;;;14.37;98.81;100579.53;5013003;28;20442;-72
2022/07/18 04:13:15;;;;;;;8.07;3.35;;;;;;;14.26;99.44;100576.59;5013076;28;20050;-73
2022/07/18 04:15:43;;;;;;;7.47;3.15;;;;;;;14.38;99.27;100570.41;5018568;28;20045;-76
2022/07/18 04:18:10;;;;;;;13.10;3.67;;;;;;;14.30;99.90;100567.28;5032879;28;20429;-82
2022/07/18 04:20:39;;;;;;;8.40;3.67;;;;;;;14.22;100.00;100564.16;5032880;28;20522;-76
2022/07/18 04:23:09;;;;;;;12.30;4.50;;;;;;;14.24;100.00;100570.38;5032695;28;20069;-72
2022/07/18 04:25:40;;;;;;;8.65;3.63;;;;;;;14.30;100.00;100570.88;5033809;28;20046;-72
2022/07/18 04:28:10;;;;;;;9.63;3.58;;;;;;;14.23;100.00;100553.19;5034212;28;20099;-74
2022/07/18 04:30:39;;;;;;;8.60;3.38;;;;;;;14.28;100.00;100561.97;5032471;28;20082;-73
2022/07/18 04:33:08;;;;;;;7.75;3.30;;;;;;;14.36;100.00;100560.63;5032624;28;20134;-72
2022/07/18 04:35:37;;;;;;;11.27;3.60;;;;;;;14.48;99.59;100554.41;5032587;28;20046;-73
2022/07/18 04:38:05;;;;;;;8.02;3.20;;;;;;;14.63;99.03;100563.47;5032753;28;20045;-73
2022/07/18 04:40:32;;;;;;;7.65;3.67;;;;;;;14.85;96.89;100556.72;5032649;28;20351;-72
2022/07/18 04:43:00;;;;;;;9.38;3.50;;;;;;;14.86;96.63;100562.06;5034956;28;20042;-72
2022/07/18 04:45:29;;;;;;;6.57;3.15;;;;;;;14.96;95.49;100558.75;5036047;28;20041;-73
2022/07/18 04:47:56;;;;;;;9.63;3.63;;;;;;;15.03;95.03;100557.38;5027722;28;20065;-73
2022/07/18 04:50:24;;;;;;;7.97;3.47;;;;;;;15.21;94.50;100567.09;5016479;28;20115;-72
2022/07/18 04:52:52;;;;;;;9.07;3.88;;;;;;;15.41;92.48;100564.06;5016266;28;20049;-75
2022/07/18 04:55:22;;;;;;;12.27;3.22;;;;;;;15.40;91.91;100559.59;5016511;28;20041;-73
2022/07/18 04:57:50;;;;;;;8.98;3.67;;;;;;;15.33;92.94;100568.16;5016907;28;20042;-77
2022/07/18 05:00:19;;;;;;;8.00;3.58;;;;;;;15.55;91.34;100560.44;5014535;28;20419;-74
2022/07/18 05:02:49;;;;;;;13.48;4.43;;;;;;;15.61;90.60;100558.16;5012579;28;20108;-75
2022/07/18 05:05:18;;;;;;;10.02;3.50;;;;;;;15.71;89.88;100566.59;5012548;28;20053;-71
2022/07/18 05:07:46;;;;;;;10.10;3.67;;;;;;;15.73;89.50;100561.06;5012697;28;20563;-74
2022/07/18 05:10:16;;;;;;;11.70;3.20;;;;;;;15.79;89.56;100566.09;5012588;28;20556;-75
2022/07/18 05:12:47;;;;;;;10.65;3.28;;;;;;;15.82;89.26;100559.56;5012509;28;20116;-73
2022/07/18 05:15:15;;;;;;;8.77;3.80;;;;;;;15.87;89.32;100571.91;5014694;28;20048;-73
2022/07/18 05:17:43;;;;;;;8.60;3.75;;;;;;;15.88;89.36;100565.50;5015936;28;20049;-73
2022/07/18 05:20:15;;;;;;;11.80;4.55;;;;;;;15.79;90.28;100563.38;5015581;28;20517;-76
2022/07/18 05:22:43;;;;;;;7.57;3.28;;;;;;;15.95;89.74;100565.09;5015384;28;20046;-73
2022/07/18 05:25:12;;;;;;;10.23;3.00;;;;;;;15.99;89.31;100570.25;5015708;28;20045;-76
2022/07/18 05:27:40;;;;;;;10.75;3.47;;;;;;;16.02;89.48;100567.31;5015601;28;20042;-73
2022/07/18 05:30:10;;;;;;;8.02;3.10;;;;;;;16.09;88.84;100570.47;5015353;28;20399;-77
2022/07/18 05:32:38;;;;;;;8.95;3.13;;;;;;;16.12;88.99;100563.94;5015491;28;20100;-73
2022/07/18 05:35:07;;;;;;;9.07;3.15;;;;;;;16.14;89.28;100562.88;5015633;28;20491;-80
2022/07/18 05:37:37;;;;;;;7.68;3.28;;;;;;;16.21;88.67;100563.31;5015641;28;20041;-73
2022/07/18 05:40:05;;;;;;;9.10;3.10;;;;;;;16.25;87.94;100566.72;5015487;28;20046;-75
2022/07/18 05:42:33;;;;;;;9.73;3.10;;;;;;;16.27;87.87;100571.06;5015079;28;20049;-73
2022/07/18 05:45:01;;;;;;;8.65;3.10;;;;;;;16.32;87.14;100570.75;5015425;28;20057;-73
2022/07/18 05:47:28;;;;;;;7.45;2.85;;;;;;;16.30;87.63;100567.28;5015108;28;20050;-73
2022/07/18 05:49:56;;;;;;;10.18;3.30;;;;;;;16.32;88.19;100560.75;5015306;28;20499;-73
2022/07/18 05:52:23;;;;;;;11.43;3.00;;;;;;;16.34;87.80;100574.25;5015280;28;20045;-73
2022/07/18 05:54:52;;;;;;;8.95;3.25;;;;;;;16.38;88.12;100564.03;5014251;28;20046;-72
2022/07/18 05:57:21;;;;;;;8.48;2.75;;;;;;;16.42;87.70;100560.09;5014712;28;20046;-72
2022/07/18 05:59:48;;;;;;;8.77;2.83;;;;;;;16.46;87.92;100567.09;5015043;28;20121;-73
2022/07/18 06:02:15;;;;;;;14.52;5.20;;;;;;;16.46;87.58;100559.75;5015024;28;20444;-72
2022/07/18 06:04:43;;;;;;;6.90;2.75;;;;;;;16.50;87.02;100564.00;5015081;28;20045;-73
2022/07/18 06:07:10;;;;;;;7.25;2.90;;;;;;;16.51;87.33;100568.50;5015082;28;20092;-72
2022/07/18 06:09:38;;;;;;;7.00;3.03;;;;;;;16.55;86.93;100565.56;5014513;28;20392;-73
2022/07/18 06:12:08;;;;;;;8.45;2.60;;;;;;;16.56;86.84;100564.59;5030831;28;20075;-73
2022/07/18 06:14:35;;;;;;;11.80;3.90;;;;;;;16.62;86.53;100564.16;5030694;28;20820;-72
2022/07/18 06:17:03;;;;;;;13.38;3.00;;;;;;;16.66;86.66;100568.41;5030208;28;20049;-73
2022/07/18 06:19:30;;;;;;;12.55;3.03;;;;;;;16.74;86.22;100566.00;5031032;28;20049;-72
2022/07/18 06:21:59;;;;;;;9.82;2.70;;;;;;;16.78;84.72;100558.50;5030801;28;20487;-72
2022/07/18 06:24:26;;;;;;;7.22;2.60;;;;;;;16.79;84.47;100566.53;5031014;28;20049;-72
2022/07/18 06:26:54;;;;;;;6.85;2.67;;;;;;;16.86;84.12;100564.25;5029644;28;20644;-72
2022/07/18 06:29:23;;;;;;;8.88;3.00;;;;;;;16.85;84.54;100559.78;5031604;28;20045;-75
2022/07/18 06:31:51;;;;;;;6.30;2.50;;;;;;;16.94;83.88;100556.41;5030389;28;20048;-72
2022/07/18 06:34:18;;;;;;;6.22;2.50;;;;;;;16.98;83.34;100556.22;5030697;28;20042;-73
2022/07/18 06:36:46;;;;;;;6.25;2.63;;;;;;;16.98;82.93;100562.56;5030574;28;20048;-72
2022/07/18 06:39:16;;;;;;;7.85;2.50;;;;;;;17.03;83.03;100559.47;5030469;28;20045;-72
2022/07/18 06:41:44;;;;;;;6.15;3.05;;;;;;;17.06;83.00;100559.25;5031154;28;20054;-72
2022/07/18 06:44:11;;;;;;;4.88;2.30;;;;;;;17.14;82.41;100561.44;5030219;28;20034;-73
2022/07/18 06:46:40;;;;;;;10.15;3.28;;;;;;;17.19;82.43;100559.22;5031993;28;20085;-75
2022/07/18 06:49:08;;;;;;;6.55;2.40;;;;;;;17.25;82.35;100561.50;5030870;28;20045;-74
2022/07/18 06:51:36;;;;;;;8.48;2.60;;;;;;;17.30;82.30;100555.72;5029977;28;20059;-75
2022/07/18 06:54:03;;;;;;;6.35;2.80;;;;;;;17.37;82.13;100552.44;5030391;28;20045;-74
2022/07/18 06:56:31;;;;;;;8.32;2.38;;;;;;;17.42;82.45;100553.97;5029698;28;20099;-74
2022/07/18 06:58:58;;;;;;;6.50;2.30;;;;;;;17.48;82.14;100557.09;5029821;28;20052;-72
2022/07/18 07:01:26;;;;;;;12.35;2.50;;;;;;;17.52;81.27;100553.13;5029712;28;20444;-74
2022/07/18 07:03:55;;;;;;;4.90;2.22;;;;;;;17.54;81.43;100558.50;5029808;28;20049;-73
2022/07/18 07:06:22;;;;;;;5.60;2.45;;;;;;;17.58;80.17;100560.00;5029809;28;20269;-73
2022/07/18 07:08:50;;;;;;;5.13;2.30;;;;;;;17.57;80.68;100554.69;5029414;28;20049;-73
2022/07/18 07:11:17;;;;;;;11.77;2.40;;;;;;;17.62;81.24;100556.06;5028794;28;20042;-75
2022/07/18 07:13:45;;;;;;;9.27;2.50;;;;;;;17.70;81.50;100557.34;5029745;28;20049;-71
2022/07/18 07:16:12;;;;;;;5.90;2.40;;;;;;;17.77;80.83;100558.66;5029608;28;20050;-73
2022/07/18 07:18:40;;;;;;;6.07;2.13;;;;;;;17.78;79.70;100554.94;5030044;28;20049;-71
2022/07/18 07:21:09;;;;;;;6.15;2.35;;;;;;;17.83;79.67;100557.28;5029983;28;20045;-72
2022/07/18 07:23:36;;;;;;;8.50;2.35;;;;;;;17.78;79.74;100557.66;5029644;28;20049;-72
2022/07/18 07:26:04;;;;;;;6.60;2.38;;;;;;;17.91;77.63;100561.19;5029114;28;20053;-76
2022/07/18 07:28:31;;;;;;;5.68;2.05;;;;;;;17.95;76.27;100559.13;5029268;28;20449;-72
2022/07/18 07:30:59;;;;;;;7.50;2.40;;;;;;;17.94;76.16;100563.69;5029447;28;20701;-73
2022/07/18 07:33:27;;;;;;;9.35;2.35;;;;;;;17.96;76.51;100561.72;5029688;28;20049;-75
2022/07/18 07:35:54;;;;;;;6.65;2.47;;;;;;;18.01;75.87;100563.25;5029799;28;20049;-71
2022/07/18 07:38:27;;;;;;;4.88;2.00;;;;;;;18.06;76.61;100558.31;5028768;28;20068;-72
2022/07/18 07:40:56;;;;;;;6.25;2.13;;;;;;;18.11;76.41;100558.81;5029398;28;20049;-72
2022/07/18 07:43:24;;;;;;;7.72;2.17;;;;;;;18.12;74.46;100552.34;5029700;28;20442;-73
2022/07/18 07:45:52;;;;;;;7.85;2.13;;;;;;;18.15;74.32;100562.19;5029709;28;20148;-73
2022/07/18 07:48:20;;;;;;;7.50;2.22;;;;;;;18.15;73.30;100554.00;5017783;28;20058;-74
2022/07/18 07:50:48;;;;;;;7.15;2.53;;;;;;;18.19;73.72;100552.75;5024750;28;20506;-73
2022/07/18 07:53:15;;;;;;;5.70;2.30;;;;;;;18.18;74.74;100553.75;5029078;28;20053;-72
2022/07/18 07:55:44;;;;;;;4.57;2.00;;;;;;;18.20;73.22;100549.94;5029580;28;20430;-72
2022/07/18 07:58:12;;;;;;;5.90;2.30;;;;;;;18.19;72.17;100552.75;5029648;28;20045;-73
2022/07/18 08:00:39;;;;;;;6.10;2.20;;;;;;;18.22;72.18;100547.06;5029520;28;20056;-73
2022/07/18 08:03:10;;;;;;;4.95;2.25;;;;;;;18.27;71.06;100553.03;5029111;28;20049;-73
2022/07/18 08:05:38;;;;;;;6.30;2.20;;;;;;;18.29;69.13;100551.06;5031204;28;20045;-73
2022/07/18 08:08:06;;;;;;;5.28;2.33;;;;;;;18.33;69.14;100558.03;5030278;28;20089;-77
2022/07/18 08:10:34;;;;;;;6.18;2.17;;;;;;;18.35;67.71;100552.44;5031787;28;20038;-72
2022/07/18 08:13:03;;;;;;;6.55;1.95;;;;;;;18.40;65.74;100547.50;5031388;28;20045;-77
2022/07/18 08:15:31;;;;;;;5.18;2.17;;;;;;;18.47;66.10;100547.88;5029161;28;20513;-73
2022/07/18 08:17:58;;;;;;;4.80;2.17;;;;;;;18.50;65.47;100555.84;5034247;28;20049;-72
2022/07/18 08:20:26;;;;;;;4.70;1.88;;;;;;;18.54;65.63;100552.72;5035853;28;20038;-74
2022/07/18 08:22:55;;;;;;;4.15;2.13;;;;;;;18.56;64.93;100555.34;5034817;28;20033;-75
2022/07/18 08:25:23;;;;;;;4.93;2.00;;;;;;;18.63;65.14;100555.75;5035168;28;20041;-75
2022/07/18 08:27:51;;;;;;;4.07;2.03;;;;;;;18.66;65.17;100558.25;5035072;28;20067;-75
2022/07/18 08:30:20;;;;;;;4.35;1.92;;;;;;;18.71;64.21;100552.41;5035686;28;20041;-72
2022/07/18 08:32:48;;;;;;;4.60;2.30;;;;;;;18.74;63.64;100554.88;5035602;28;20119;-72
2022/07/18 08:35:15;;;;;;;6.40;2.30;;;;;;;18.74;64.31;100553.03;5034647;28;20049;-75
2022/07/18 08:37:43;;;;;;;7.35;2.30;;;;;;;18.75;64.77;100553.88;5034665;28;20045;-73
2022/07/18 08:40:11;;;;;;;4.15;2.08;;;;;;;18.80;65.45;100549.81;5035089;28;20091;-73
2022/07/18 08:42:39;;;;;;;4.57;2.00;;;;;;;18.92;62.65;100547.94;5035286;28;20068;-74
2022/07/18 08:45:08;;;;;;;6.05;2.17;;;;;;;18.88;63.02;100542.84;5035615;28;20495;-73
2022/07/18 08:47:37;;;;;;;9.45;2.67;;;;;;;18.96;63.20;100543.09;5033616;28;20061;-71
2022/07/18 08:50:05;;;;;;;6.13;2.15;;;;;;;19.04;62.97;100553.44;5032293;28;20049;-72
2022/07/18 08:52:35;;;;;;;4.50;2.13;;;;;;;19.04;61.76;100542.50;5034252;28;20045;-71
2022/07/18 08:55:03;;;;;;;6.97;2.20;;;;;;;19.07;62.56;100547.72;5034639;28;20041;-74
2022/07/18 08:57:31;;;;;;;5.68;1.95;;;;;;;19.09;61.49;100548.47;5034688;28;20037;-71
2022/07/18 08:59:58;;;;;;;4.25;1.98;;;;;;;19.11;61.09;100539.16;5034921;28;20045;-73
2022/07/18 09:02:27;;;;;;;5.13;2.10;;;;;;;19.07;60.66;100531.31;5034735;28;20042;-73
2022/07/18 09:04:56;;;;;;;3.88;1.90;;;;;;;19.13;62.35;100540.91;5034807;28;20041;-74
2022/07/18 09:07:29;;;;;;;5.47;2.00;;;;;;;19.18;61.70;100534.06;5034531;28;20462;-73
2022/07/18 09:09:59;;;;;;;3.00;1.73;;;;;;;19.29;60.52;100530.41;5035249;28;20045;-73
2022/07/18 09:12:27;;;;;;;4.38;2.03;;;;;;;19.29;62.30;100535.03;5034754;28;20045;-73
2022/07/18 09:14:55;;;;;;;5.40;2.10;;;;;;;19.34;61.25;100532.78;5034719;28;20534;-73
2022/07/18 09:17:25;;;;;;;11.05;2.28;;;;;;;19.40;59.98;100541.38;5034864;28;20048;-72
2022/07/18 09:20:02;;;;;;;6.53;2.13;;;;;;;19.37;61.07;100538.84;5034306;28;20048;-73
2022/07/18 09:22:31;;;;;;;5.30;2.05;;;;;;;19.34;61.78;100539.13;5035218;28;20045;-73
2022/07/18 09:25:00;;;;;;;5.60;2.22;;;;;;;19.43;61.58;100545.72;5034570;28;20045;-73
2022/07/18 09:27:34;;;;;;;7.55;2.38;;;;;;;19.41;60.84;100531.28;5034261;28;20048;-73
2022/07/18 09:30:10;;;;;;;4.20;2.10;;;;;;;19.43;59.43;100537.50;5036613;28;20502;-74
2022/07/18 09:32:38;;;;;;;4.00;2.20;;;;;;;19.50;58.44;100537.88;5034465;28;20079;-73
2022/07/18 09:35:08;;;;;;;4.00;2.05;;;;;;;19.50;59.33;100527.75;5034067;28;20045;-73
2022/07/18 09:37:36;;;;;;;5.90;2.10;;;;;;;19.47;59.97;100528.03;5035835;28;20046;-72
2022/07/18 09:40:17;;;;;;;4.00;2.17;;;;;;;19.51;60.21;100534.97;5034481;28;20053;-73
2022/07/18 09:42:44;;;;;;;4.55;2.13;;;;;;;19.48;59.33;100532.50;5034313;28;20513;-73
2022/07/18 09:45:12;;;;;;;4.82;2.20;;;;;;;19.52;59.42;100531.25;5034284;28;20482;-73
2022/07/18 09:47:51;;;;;;;5.90;2.33;;;;;;;19.51;60.89;100520.44;5033964;28;20072;-72
2022/07/18 09:50:25;;;;;;;5.78;2.13;;;;;;;19.54;60.92;100529.25;5015148;28;20045;-74
2022/07/18 09:53:14;;;;;;;6.03;2.28;;;;;;;19.58;61.71;100527.13;5033821;28;20053;-73
2022/07/18 09:55:47;;;;;;;5.90;2.03;;;;;;;19.76;57.55;100532.03;5030134;28;20057;-73
2022/07/18 09:58:17;;;;;;;8.65;2.17;;;;;;;19.77;57.50;100531.94;5034360;28;20045;-73
2022/07/18 10:00:45;;;;;;;6.65;2.20;;;;;;;19.79;58.80;100526.34;5033922;28;20046;-72
2022/07/18 10:03:12;;;;;;;7.07;2.22;;;;;;;19.84;59.02;100529.56;5033703;28;20053;-72
2022/07/18 10:05:42;;;;;;;7.45;2.03;;;;;;;19.93;56.84;100539.75;5033571;28;20403;-72
2022/07/18 10:08:11;;;;;;;5.10;1.90;;;;;;;19.97;56.69;100529.38;5035049;28;20056;-73
2022/07/18 10:10:40;;;;;;;5.05;2.13;;;;;;;19.95;57.09;100535.03;5033871;28;20050;-77
2022/07/18 10:13:08;;;;;;;5.60;2.03;;;;;;;19.96;57.98;100539.50;5033481;28;20046;-72
2022/07/18 10:15:38;;;;;;;4.80;1.90;;;;;;;20.09;56.65;100535.69;5034422;28;20045;-73
2022/07/18 10:18:07;;;;;;;5.45;2.10;;;;;;;20.07;57.49;100534.97;5032146;28;20041;-76
2022/07/18 10:20:36;;;;;;;5.47;1.85;;;;;;;20.13;54.10;100534.44;5033101;28;20041;-72
2022/07/18 10:23:16;;;;;;;4.68;1.80;;;;;;;20.14;53.51;100529.84;5032805;28;20041;-76
2022/07/18 10:25:44;;;;;;;2.83;1.67;;;;;;;20.25;53.56;100535.25;5034117;28;20045;-74
2022/07/18 10:28:13;;;;;;;3.20;1.60;;;;;;;20.19;53.68;100530.31;5032922;28;20407;-74
2022/07/18 10:30:44;;;;;;;4.50;1.90;;;;;;;20.30;53.17;100529.38;5032543;28;20049;-72
2022/07/18 10:33:41;;;;;;;6.45;2.10;;;;;;;20.37;54.02;100538.81;5032753;28;20037;-72
2022/07/18 10:36:12;;;;;;;6.47;1.85;;;;;;;20.32;54.18;100528.22;5030663;28;20135;-72
2022/07/18 10:39:05;;;;;;;10.35;1.90;;;;;;;20.32;55.07;100527.38;5032696;28;20037;-72
2022/07/18 10:41:32;;;;;;;6.68;1.70;;;;;;;20.45;55.53;100539.00;5033681;28;20465;-72
2022/07/18 10:44:00;;;;;;;5.43;2.00;;;;;;;20.48;55.11;100527.75;5032583;28;20115;-73
2022/07/18 10:47:04;;;;;;;4.30;1.75;;;;;;;20.50;53.76;100530.38;5032372;28;20045;-72
2022/07/18 10:50:02;;;;;;;6.45;2.00;;;;;;;20.44;54.60;100533.66;5030766;28;20038;-72
2022/07/18 10:53:00;;;;;;;4.55;1.70;;;;;;;20.45;55.33;100538.16;5028905;28;20041;-72
2022/07/18 10:55:35;;;;;;;6.40;1.80;;;;;;;20.51;55.73;100537.59;5031519;28;20511;-72
2022/07/18 10:58:20;;;;;;;6.70;1.92;;;;;;;20.50;57.17;100531.22;5034039;28;20065;-75
2022/07/18 11:00:54;;;;;;;5.18;1.95;;;;;;;20.61;57.84;100537.69;5029930;28;20643;-73
2022/07/18 11:03:28;;;;;;;7.22;2.00;;;;;;;20.69;56.32;100537.88;5031789;28;20045;-74
2022/07/18 11:05:57;;;;;;;5.38;1.80;;;;;;;20.70;55.06;100528.63;5032802;28;20045;-75
2022/07/18 11:08:25;;;;;;;6.75;1.83;;;;;;;20.75;54.15;100526.34;5032430;28;20116;-73
2022/07/18 11:11:16;;;;;;;6.35;2.00;;;;;;;20.83;56.17;100532.03;5032365;28;20103;-75
2022/07/18 11:13:49;;;;;;;5.47;1.95;;;;;;;20.81;57.35;100528.56;5032729;28;20038;-73
2022/07/18 11:16:19;;;;;;;5.43;2.00;;;;;;;20.77;58.13;100529.81;5033092;28;20045;-73
2022/07/18 11:19:21;;;;;;;6.43;2.10;;;;;;;20.92;59.06;100529.47;5032168;28;20060;-73
2022/07/18 11:21:58;;;;;;;3.63;1.98;;;;;;;21.04;57.39;100533.00;5033215;28;20053;-74
2022/07/18 11:24:26;;;;;;;6.28;1.92;;;;;;;21.10;56.10;100526.97;5033205;28;20041;-75
2022/07/18 11:26:54;;;;;;;5.55;1.80;;;;;;;21.07;56.19;100530.88;5032278;28;20045;-77
2022/07/18 11:29:22;;;;;;;6.05;1.80;;;;;;;21.03;55.20;100523.91;5031722;28;20049;-76
2022/07/18 11:31:51;;;;;;;4.22;1.80;;;;;;;21.09;55.18;100515.13;5028678;28;20395;-78
2022/07/18 11:34:19;;;;;;;5.50;1.90;;;;;;;21.07;55.89;100516.25;5031792;28;20041;-77
2022/07/18 11:36:48;;;;;;;4.85;2.08;;;;;;;21.11;56.70;100515.84;5031940;28;20394;-76